sensor_id;sensor_type;location;lat;lon;timestamp;pressure;altitude;pressure_sealevel;temperature;humidity
75051;BME280;63628;47.656;11.310;2023-10-09T00:01:26;95545.00;;;16.67;66.05
75051;BME280;63628;47.656;11.310;2023-10-09T00:03:53;95541.88;;;16.54;67.19
75051;BME280;63628;47.656;11.310;2023-10-09T00:06:22;95550.28;;;13.64;71.71
75051;BME280;63628;47.656;11.310;2023-10-09T00:09:04;95545.78;;;16.02;68.31
75051;BME280;63628;47.656;11.310;2023-10-09T00:12:06;95540.09;;;16.37;67.61
75051;BME280;63628;47.656;11.310;2023-10-09T00:14:38;95544.75;;;16.47;66.93
75051;BME280;63628;47.656;11.310;2023-10-09T00:17:06;95541.50;;;16.45;67.07
75051;BME280;63628;47.656;11.310;2023-10-09T00:19:39;95543.69;;;16.48;66.60
75051;BME280;63628;47.656;11.310;2023-10-09T00:22:05;95547.09;;;15.61;61.88
75051;BME280;63628;47.656;11.310;2023-10-09T00:24:53;95533.03;;;15.66;66.93
75051;BME280;63628;47.656;11.310;2023-10-09T00:27:40;95528.28;;;16.33;66.67
75051;BME280;63628;47.656;11.310;2023-10-09T00:30:13;95534.50;;;16.39;66.95
75051;BME280;63628;47.656;11.310;2023-10-09T00:32:56;95530.28;;;16.43;66.67
75051;BME280;63628;47.656;11.310;2023-10-09T00:35:30;95524.38;;;16.41;66.73
75051;BME280;63628;47.656;11.310;2023-10-09T00:38:03;95522.31;;;16.48;66.48
75051;BME280;63628;47.656;11.310;2023-10-09T00:40:40;95528.53;;;14.31;66.58
75051;BME280;63628;47.656;11.310;2023-10-09T00:43:13;95521.25;;;16.05;67.72
75051;BME280;63628;47.656;11.310;2023-10-09T00:45:43;95519.72;;;16.31;66.55
75051;BME280;63628;47.656;11.310;2023-10-09T00:48:11;95512.31;;;16.38;66.62
75051;BME280;63628;47.656;11.310;2023-10-09T00:50:42;95503.00;;;16.41;66.09
75051;BME280;63628;47.656;11.310;2023-10-09T00:53:20;95514.06;;;16.28;66.83
75051;BME280;63628;47.656;11.310;2023-10-09T00:55:57;95509.72;;;16.00;60.35
75051;BME280;63628;47.656;11.310;2023-10-09T00:58:25;95506.78;;;16.23;66.64
75051;BME280;63628;47.656;11.310;2023-10-09T01:00:58;95511.78;;;12.78;71.11
75051;BME280;63628;47.656;11.310;2023-10-09T01:03:26;95506.00;;;15.45;69.75
75051;BME280;63628;47.656;11.310;2023-10-09T01:05:55;95503.06;;;16.02;67.24
75051;BME280;63628;47.656;11.310;2023-10-09T01:08:26;95496.47;;;16.10;67.15
75051;BME280;63628;47.656;11.310;2023-10-09T01:11:10;95490.19;;;16.21;66.55
75051;BME280;63628;47.656;11.310;2023-10-09T01:13:46;95494.22;;;16.24;66.54
75051;BME280;63628;47.656;11.310;2023-10-09T01:16:14;95491.25;;;16.20;66.72
75051;BME280;63628;47.656;11.310;2023-10-09T01:18:44;95478.59;;;16.10;67.16
75051;BME280;63628;47.656;11.310;2023-10-09T01:21:13;95480.06;;;16.23;66.29
75051;BME280;63628;47.656;11.310;2023-10-09T01:23:44;95473.88;;;16.17;66.35
75051;BME280;63628;47.656;11.310;2023-10-09T01:26:31;95476.03;;;16.21;66.56
75051;BME280;63628;47.656;11.310;2023-10-09T01:29:06;95466.53;;;16.08;66.93
75051;BME280;63628;47.656;11.310;2023-10-09T01:31:37;95464.78;;;16.18;66.59
75051;BME280;63628;47.656;11.310;2023-10-09T01:34:10;95460.25;;;16.19;65.13
75051;BME280;63628;47.656;11.310;2023-10-09T01:36:39;95464.72;;;14.36;71.37
75051;BME280;63628;47.656;11.310;2023-10-09T01:39:07;95463.28;;;15.07;60.36
75051;BME280;63628;47.656;11.310;2023-10-09T01:41:49;95454.25;;;15.63;68.08
75051;BME280;63628;47.656;11.310;2023-10-09T01:44:18;95442.09;;;15.94;67.09
75051;BME280;63628;47.656;11.310;2023-10-09T01:46:45;95447.69;;;15.93;61.58
75051;BME280;63628;47.656;11.310;2023-10-09T01:49:15;95451.47;;;14.86;70.26
75051;BME280;63628;47.656;11.310;2023-10-09T01:51:48;95441.66;;;15.80;67.40
75051;BME280;63628;47.656;11.310;2023-10-09T01:54:18;95441.59;;;15.97;66.44
75051;BME280;63628;47.656;11.310;2023-10-09T01:57:00;95437.50;;;15.51;66.42
75051;BME280;63628;47.656;11.310;2023-10-09T01:59:32;95441.03;;;15.95;65.26
75051;BME280;63628;47.656;11.310;2023-10-09T02:01:59;95444.00;;;15.99;66.21
75051;BME280;63628;47.656;11.310;2023-10-09T02:04:32;95438.41;;;16.00;66.46
75051;BME280;63628;47.656;11.310;2023-10-09T02:06:59;95442.09;;;15.94;66.63
75051;BME280;63628;47.656;11.310;2023-10-09T02:09:27;95438.69;;;15.99;66.44
75051;BME280;63628;47.656;11.310;2023-10-09T02:11:58;95438.41;;;16.00;66.10
75051;BME280;63628;47.656;11.310;2023-10-09T02:14:24;95440.28;;;16.00;66.11
75051;BME280;63628;47.656;11.310;2023-10-09T02:16:51;95447.78;;;13.85;71.13
75051;BME280;63628;47.656;11.310;2023-10-09T02:19:34;95433.59;;;15.37;62.36
75051;BME280;63628;47.656;11.310;2023-10-09T02:22:01;95436.69;;;15.67;66.90
75051;BME280;63628;47.656;11.310;2023-10-09T02:24:41;95431.25;;;15.79;66.53
75051;BME280;63628;47.656;11.310;2023-10-09T02:27:24;95423.47;;;15.77;67.07
75051;BME280;63628;47.656;11.310;2023-10-09T02:30:08;95429.94;;;15.81;66.85
75051;BME280;63628;47.656;11.310;2023-10-09T02:32:42;95436.75;;;13.93;72.43
75051;BME280;63628;47.656;11.310;2023-10-09T02:35:10;95426.53;;;15.47;67.38
75051;BME280;63628;47.656;11.310;2023-10-09T02:37:54;95426.81;;;15.29;68.01
75051;BME280;63628;47.656;11.310;2023-10-09T02:40:28;95427.09;;;15.66;66.89
75051;BME280;63628;47.656;11.310;2023-10-09T02:43:00;95417.34;;;15.77;66.22
75051;BME280;63628;47.656;11.310;2023-10-09T02:45:26;95414.84;;;15.32;67.26
75051;BME280;63628;47.656;11.310;2023-10-09T02:48:01;95430.63;;;13.41;70.89
75051;BME280;63628;47.656;11.310;2023-10-09T02:50:37;95417.50;;;14.03;72.56
75051;BME280;63628;47.656;11.310;2023-10-09T02:53:05;95414.41;;;15.40;67.60
75051;BME280;63628;47.656;11.310;2023-10-09T02:55:37;95413.84;;;14.49;69.12
75051;BME280;63628;47.656;11.310;2023-10-09T02:58:05;95414.00;;;14.42;60.60
75051;BME280;63628;47.656;11.310;2023-10-09T03:00:33;95402.19;;;15.22;68.29
75051;BME280;63628;47.656;11.310;2023-10-09T03:03:03;95405.66;;;15.22;67.41
75051;BME280;63628;47.656;11.310;2023-10-09T03:05:33;95401.53;;;15.53;66.50
75051;BME280;63628;47.656;11.310;2023-10-09T03:08:00;95401.81;;;15.57;66.64
75051;BME280;63628;47.656;11.310;2023-10-09T03:10:26;95390.47;;;15.62;66.36
75051;BME280;63628;47.656;11.310;2023-10-09T03:12:54;95390.69;;;15.60;66.61
75051;BME280;63628;47.656;11.310;2023-10-09T03:15:22;95390.03;;;15.53;66.60
75051;BME280;63628;47.656;11.310;2023-10-09T03:17:49;95392.00;;;15.58;64.46
75051;BME280;63628;47.656;11.310;2023-10-09T03:20:16;95391.78;;;15.42;66.69
75051;BME280;63628;47.656;11.310;2023-10-09T03:22:44;95384.94;;;15.51;66.83
75051;BME280;63628;47.656;11.310;2023-10-09T03:25:12;95381.22;;;15.31;61.34
75051;BME280;63628;47.656;11.310;2023-10-09T03:27:41;95383.50;;;15.22;67.37
75051;BME280;63628;47.656;11.310;2023-10-09T03:30:18;95381.47;;;15.51;66.53
75051;BME280;63628;47.656;11.310;2023-10-09T03:32:52;95380.09;;;15.05;61.49
75051;BME280;63628;47.656;11.310;2023-10-09T03:35:19;95382.94;;;14.19;71.44
75051;BME280;63628;47.656;11.310;2023-10-09T03:37:54;95373.03;;;15.15;67.55
75051;BME280;63628;47.656;11.310;2023-10-09T03:40:40;95373.78;;;15.33;66.73
75051;BME280;63628;47.656;11.310;2023-10-09T03:43:09;95378.06;;;15.34;67.25
75051;BME280;63628;47.656;11.310;2023-10-09T03:45:38;95385.84;;;14.63;69.93
75051;BME280;63628;47.656;11.310;2023-10-09T03:48:11;95372.59;;;15.23;67.26
75051;BME280;63628;47.656;11.310;2023-10-09T03:50:47;95371.69;;;15.35;66.96
75051;BME280;63628;47.656;11.310;2023-10-09T03:53:15;95367.09;;;15.30;66.69
75051;BME280;63628;47.656;11.310;2023-10-09T03:55:42;95363.38;;;14.76;61.72
75051;BME280;63628;47.656;11.310;2023-10-09T03:58:09;95369.22;;;14.11;65.68
75051;BME280;63628;47.656;11.310;2023-10-09T04:00:41;95365.09;;;15.20;66.98
75051;BME280;63628;47.656;11.310;2023-10-09T04:03:12;95358.53;;;15.28;67.22
75051;BME280;63628;47.656;11.310;2023-10-09T04:05:42;95355.53;;;14.86;67.96
75051;BME280;63628;47.656;11.310;2023-10-09T04:08:12;95352.06;;;15.24;66.80
75051;BME280;63628;47.656;11.310;2023-10-09T04:10:56;95356.41;;;15.30;64.41
75051;BME280;63628;47.656;11.310;2023-10-09T04:13:31;95354.06;;;14.95;68.12
75051;BME280;63628;47.656;11.310;2023-10-09T04:16:03;95365.38;;;12.10;67.91
75051;BME280;63628;47.656;11.310;2023-10-09T04:18:48;95367.53;;;12.43;67.59
75051;BME280;63628;47.656;11.310;2023-10-09T04:21:16;95358.72;;;11.10;69.79
75051;BME280;63628;47.656;11.310;2023-10-09T04:23:46;95344.75;;;14.59;69.14
75051;BME280;63628;47.656;11.310;2023-10-09T04:26:31;95350.69;;;15.00;67.23
75051;BME280;63628;47.656;11.310;2023-10-09T04:29:01;95351.63;;;15.10;66.60
75051;BME280;63628;47.656;11.310;2023-10-09T04:31:30;95349.22;;;15.09;66.75
75051;BME280;63628;47.656;11.310;2023-10-09T04:34:03;95344.69;;;15.09;66.79
75051;BME280;63628;47.656;11.310;2023-10-09T04:36:48;95342.25;;;15.08;67.01
75051;BME280;63628;47.656;11.310;2023-10-09T04:39:23;95349.06;;;14.82;67.52
75051;BME280;63628;47.656;11.310;2023-10-09T04:41:56;95343.00;;;14.86;67.31
75051;BME280;63628;47.656;11.310;2023-10-09T04:44:46;95338.56;;;14.92;66.52
75051;BME280;63628;47.656;11.310;2023-10-09T04:47:31;95340.97;;;15.10;66.27
75051;BME280;63628;47.656;11.310;2023-10-09T04:50:25;95340.00;;;14.44;62.57
75051;BME280;63628;47.656;11.310;2023-10-09T04:52:57;95335.25;;;15.02;66.99
75051;BME280;63628;47.656;11.310;2023-10-09T04:55:44;95334.34;;;13.95;69.87
75051;BME280;63628;47.656;11.310;2023-10-09T04:58:21;95337.44;;;14.88;67.06
75051;BME280;63628;47.656;11.310;2023-10-09T05:00:52;95341.91;;;12.72;68.23
75051;BME280;63628;47.656;11.310;2023-10-09T05:03:26;95345.88;;;14.63;67.67
75051;BME280;63628;47.656;11.310;2023-10-09T05:06:10;95348.09;;;14.21;63.98
75051;BME280;63628;47.656;11.310;2023-10-09T05:08:56;95360.41;;;14.72;67.98
75051;BME280;63628;47.656;11.310;2023-10-09T05:11:34;95358.03;;;14.93;66.69
75051;BME280;63628;47.656;11.310;2023-10-09T05:14:20;95352.38;;;14.89;67.33
75051;BME280;63628;47.656;11.310;2023-10-09T05:17:06;95356.59;;;13.89;70.50
75051;BME280;63628;47.656;11.310;2023-10-09T05:19:34;95365.72;;;14.72;67.76
75051;BME280;63628;47.656;11.310;2023-10-09T05:22:21;95360.06;;;14.85;67.19
75051;BME280;63628;47.656;11.310;2023-10-09T05:25:03;95357.47;;;14.90;67.04
75051;BME280;63628;47.656;11.310;2023-10-09T05:27:42;95351.00;;;14.86;67.07
75051;BME280;63628;47.656;11.310;2023-10-09T05:30:12;95361.66;;;14.86;66.64
75051;BME280;63628;47.656;11.310;2023-10-09T05:32:55;95357.72;;;14.89;66.49
75051;BME280;63628;47.656;11.310;2023-10-09T05:35:27;95369.75;;;14.91;66.73
75051;BME280;63628;47.656;11.310;2023-10-09T05:38:08;95364.72;;;14.95;66.44
75051;BME280;63628;47.656;11.310;2023-10-09T05:40:51;95361.44;;;14.38;64.24
75051;BME280;63628;47.656;11.310;2023-10-09T05:43:31;95365.63;;;14.84;66.81
75051;BME280;63628;47.656;11.310;2023-10-09T05:46:16;95369.44;;;13.52;64.42
75051;BME280;63628;47.656;11.310;2023-10-09T05:48:43;95369.00;;;13.84;65.68
75051;BME280;63628;47.656;11.310;2023-10-09T05:51:11;95378.06;;;12.61;73.37
75051;BME280;63628;47.656;11.310;2023-10-09T05:54:01;95381.25;;;11.86;77.00
75051;BME280;63628;47.656;11.310;2023-10-09T05:56:51;95381.72;;;11.95;73.08
75051;BME280;63628;47.656;11.310;2023-10-09T05:59:47;95377.47;;;12.94;70.50
75051;BME280;63628;47.656;11.310;2023-10-09T06:02:32;95372.31;;;14.36;66.87
75051;BME280;63628;47.656;11.310;2023-10-09T06:05:28;95376.16;;;14.57;65.97
75051;BME280;63628;47.656;11.310;2023-10-09T06:08:08;95381.56;;;14.62;65.79
75051;BME280;63628;47.656;11.310;2023-10-09T06:10:39;95386.16;;;12.78;69.90
75051;BME280;63628;47.656;11.310;2023-10-09T06:13:08;95391.34;;;14.28;67.56
75051;BME280;63628;47.656;11.310;2023-10-09T06:15:53;95388.91;;;14.55;66.11
75051;BME280;63628;47.656;11.310;2023-10-09T06:18:36;95392.38;;;14.55;66.52
75051;BME280;63628;47.656;11.310;2023-10-09T06:21:10;95392.13;;;14.57;66.64
75051;BME280;63628;47.656;11.310;2023-10-09T06:23:58;95394.06;;;14.62;65.02
75051;BME280;63628;47.656;11.310;2023-10-09T06:26:45;95396.75;;;14.62;66.12
75051;BME280;63628;47.656;11.310;2023-10-09T06:29:24;95406.81;;;14.59;66.01
75051;BME280;63628;47.656;11.310;2023-10-09T06:32:11;95410.53;;;14.58;66.24
75051;BME280;63628;47.656;11.310;2023-10-09T06:34:56;95417.34;;;14.38;67.73
75051;BME280;63628;47.656;11.310;2023-10-09T06:37:41;95416.91;;;14.57;66.23
75051;BME280;63628;47.656;11.310;2023-10-09T06:40:28;95420.38;;;14.75;68.83
75051;BME280;63628;47.656;11.310;2023-10-09T06:43:14;95422.66;;;14.66;66.04
75051;BME280;63628;47.656;11.310;2023-10-09T06:45:44;95415.88;;;14.58;66.95
75051;BME280;63628;47.656;11.310;2023-10-09T06:48:11;95423.13;;;14.80;69.44
75051;BME280;63628;47.656;11.310;2023-10-09T06:50:57;95430.72;;;14.88;67.17
75051;BME280;63628;47.656;11.310;2023-10-09T06:53:42;95437.94;;;15.04;70.19
75051;BME280;63628;47.656;11.310;2023-10-09T06:56:23;95434.28;;;14.77;66.67
75051;BME280;63628;47.656;11.310;2023-10-09T06:59:14;95437.25;;;14.80;66.30
75051;BME280;63628;47.656;11.310;2023-10-09T07:01:51;95438.88;;;14.81;66.14
75051;BME280;63628;47.656;11.310;2023-10-09T07:04:37;95436.47;;;14.97;67.30
75051;BME280;63628;47.656;11.310;2023-10-09T07:07:04;95431.38;;;14.78;66.65
75051;BME280;63628;47.656;11.310;2023-10-09T07:09:36;95431.69;;;14.82;66.38
75051;BME280;63628;47.656;11.310;2023-10-09T07:12:11;95425.22;;;15.11;71.93
75051;BME280;63628;47.656;11.310;2023-10-09T07:14:47;95432.19;;;15.12;73.91
75051;BME280;63628;47.656;11.310;2023-10-09T07:17:13;95433.94;;;16.06;68.53
75051;BME280;63628;47.656;11.310;2023-10-09T07:19:51;95430.00;;;15.48;67.45
75051;BME280;63628;47.656;11.310;2023-10-09T07:22:18;95432.22;;;15.34;72.00
75051;BME280;63628;47.656;11.310;2023-10-09T07:24:49;95424.63;;;15.26;67.32
75051;BME280;63628;47.656;11.310;2023-10-09T07:27:18;95429.81;;;15.93;74.79
75051;BME280;63628;47.656;11.310;2023-10-09T07:30:06;95428.38;;;16.61;71.63
75051;BME280;63628;47.656;11.310;2023-10-09T07:32:53;95429.09;;;16.03;71.89
75051;BME280;63628;47.656;11.310;2023-10-09T07:35:21;95427.84;;;16.10;73.12
75051;BME280;63628;47.656;11.310;2023-10-09T07:38:06;95429.69;;;18.37;69.43
75051;BME280;63628;47.656;11.310;2023-10-09T07:40:36;95427.06;;;18.78;66.03
75051;BME280;63628;47.656;11.310;2023-10-09T07:43:23;95431.00;;;17.62;71.11
75051;BME280;63628;47.656;11.310;2023-10-09T07:45:55;95423.84;;;18.66;67.67
75051;BME280;63628;47.656;11.310;2023-10-09T07:48:25;95438.09;;;17.84;69.02
75051;BME280;63628;47.656;11.310;2023-10-09T07:50:52;95434.09;;;17.96;64.01
75051;BME280;63628;47.656;11.310;2023-10-09T07:53:24;95439.91;;;17.31;75.86
75051;BME280;63628;47.656;11.310;2023-10-09T07:55:54;95423.84;;;19.52;68.03
75051;BME280;63628;47.656;11.310;2023-10-09T07:58:23;95431.13;;;18.96;66.07
75051;BME280;63628;47.656;11.310;2023-10-09T08:00:52;95434.00;;;19.66;65.28
75051;BME280;63628;47.656;11.310;2023-10-09T08:03:25;95430.94;;;19.92;65.90
75051;BME280;63628;47.656;11.310;2023-10-09T08:05:52;95427.09;;;18.98;58.24
75051;BME280;63628;47.656;11.310;2023-10-09T08:08:20;95437.53;;;18.69;67.66
75051;BME280;63628;47.656;11.310;2023-10-09T08:11:08;95438.13;;;17.99;63.98
75051;BME280;63628;47.656;11.310;2023-10-09T08:13:55;95441.69;;;18.20;66.98
75051;BME280;63628;47.656;11.310;2023-10-09T08:16:22;95449.34;;;17.43;69.45
75051;BME280;63628;47.656;11.310;2023-10-09T08:18:53;95439.38;;;17.76;61.69
75051;BME280;63628;47.656;11.310;2023-10-09T08:21:23;95438.28;;;18.55;60.69
75051;BME280;63628;47.656;11.310;2023-10-09T08:24:08;95434.72;;;20.95;58.45
75051;BME280;63628;47.656;11.310;2023-10-09T08:26:55;95430.59;;;21.37;55.87
75051;BME280;63628;47.656;11.310;2023-10-09T08:29:43;95430.31;;;17.87;71.40
75051;BME280;63628;47.656;11.310;2023-10-09T08:32:13;95420.31;;;19.62;58.80
75051;BME280;63628;47.656;11.310;2023-10-09T08:35:05;95419.28;;;19.53;60.51
75051;BME280;63628;47.656;11.310;2023-10-09T08:37:45;95431.38;;;19.05;59.74
75051;BME280;63628;47.656;11.310;2023-10-09T08:40:15;95423.06;;;19.11;59.27
75051;BME280;63628;47.656;11.310;2023-10-09T08:42:52;95424.97;;;17.40;64.21
75051;BME280;63628;47.656;11.310;2023-10-09T08:45:22;95419.03;;;19.24;59.01
75051;BME280;63628;47.656;11.310;2023-10-09T08:47:52;95405.63;;;23.48;50.29
75051;BME280;63628;47.656;11.310;2023-10-09T08:50:20;95424.69;;;17.84;63.18
75051;BME280;63628;47.656;11.310;2023-10-09T08:52:48;95416.47;;;21.50;56.19
75051;BME280;63628;47.656;11.310;2023-10-09T08:55:16;95415.56;;;24.21;47.87
75051;BME280;63628;47.656;11.310;2023-10-09T08:57:44;95412.94;;;26.09;46.27
75051;BME280;63628;47.656;11.310;2023-10-09T09:00:16;95410.34;;;27.30;43.30
75051;BME280;63628;47.656;11.310;2023-10-09T09:02:50;95410.41;;;27.76;42.92
75051;BME280;63628;47.656;11.310;2023-10-09T09:05:17;95408.09;;;26.54;42.66
75051;BME280;63628;47.656;11.310;2023-10-09T09:07:45;95427.09;;;26.37;43.11
75051;BME280;63628;47.656;11.310;2023-10-09T09:10:12;95418.06;;;26.19;42.29
75051;BME280;63628;47.656;11.310;2023-10-09T09:12:45;95419.44;;;24.92;45.26
75051;BME280;63628;47.656;11.310;2023-10-09T09:15:13;95419.94;;;26.01;45.49
75051;BME280;63628;47.656;11.310;2023-10-09T09:17:46;95422.38;;;24.82;49.38
75051;BME280;63628;47.656;11.310;2023-10-09T09:20:21;95423.88;;;21.87;56.62
75051;BME280;63628;47.656;11.310;2023-10-09T09:22:57;95424.75;;;22.87;49.94
75051;BME280;63628;47.656;11.310;2023-10-09T09:25:39;95423.94;;;22.06;51.60
75051;BME280;63628;47.656;11.310;2023-10-09T09:28:10;95432.22;;;21.04;54.59
75051;BME280;63628;47.656;11.310;2023-10-09T09:30:39;95425.47;;;20.67;59.11
75051;BME280;63628;47.656;11.310;2023-10-09T09:33:17;95426.97;;;21.23;54.97
75051;BME280;63628;47.656;11.310;2023-10-09T09:35:59;95428.94;;;20.73;56.62
75051;BME280;63628;47.656;11.310;2023-10-09T09:38:26;95434.44;;;18.15;64.13
75051;BME280;63628;47.656;11.310;2023-10-09T09:40:56;95426.50;;;18.51;63.36
75051;BME280;63628;47.656;11.310;2023-10-09T09:43:23;95424.03;;;20.36;57.73
75051;BME280;63628;47.656;11.310;2023-10-09T09:45:52;95422.78;;;18.72;63.71
75051;BME280;63628;47.656;11.310;2023-10-09T09:48:20;95411.84;;;19.99;58.04
75051;BME280;63628;47.656;11.310;2023-10-09T09:50:52;95428.19;;;18.92;64.64
75051;BME280;63628;47.656;11.310;2023-10-09T09:53:22;95416.72;;;21.25;53.69
75051;BME280;63628;47.656;11.310;2023-10-09T09:55:51;95412.00;;;21.64;48.75
75051;BME280;63628;47.656;11.310;2023-10-09T09:58:25;95428.63;;;18.54;62.58
75051;BME280;63628;47.656;11.310;2023-10-09T10:00:59;95427.41;;;20.02;54.82
75051;BME280;63628;47.656;11.310;2023-10-09T10:03:30;95427.50;;;19.87;58.08
75051;BME280;63628;47.656;11.310;2023-10-09T10:06:00;95413.84;;;22.17;50.31
75051;BME280;63628;47.656;11.310;2023-10-09T10:08:33;95407.50;;;22.26;49.80
75051;BME280;63628;47.656;11.310;2023-10-09T10:11:01;95424.63;;;19.58;58.74
75051;BME280;63628;47.656;11.310;2023-10-09T10:14:04;95428.19;;;18.97;61.45
75051;BME280;63628;47.656;11.310;2023-10-09T10:17:01;95420.44;;;20.55;54.97
75051;BME280;63628;47.656;11.310;2023-10-09T10:20:03;95414.59;;;22.78;49.70
75051;BME280;63628;47.656;11.310;2023-10-09T10:22:45;95415.16;;;20.35;56.15
75051;BME280;63628;47.656;11.310;2023-10-09T10:25:34;95422.16;;;19.72;58.27
75051;BME280;63628;47.656;11.310;2023-10-09T10:28:20;95413.09;;;21.87;50.99
75051;BME280;63628;47.656;11.310;2023-10-09T10:31:06;95420.88;;;19.54;60.27
75051;BME280;63628;47.656;11.310;2023-10-09T10:34:04;95423.75;;;21.15;54.04
75051;BME280;63628;47.656;11.310;2023-10-09T10:36:34;95416.13;;;20.60;55.72
75051;BME280;63628;47.656;11.310;2023-10-09T10:39:02;95404.31;;;22.99;49.52
75051;BME280;63628;47.656;11.310;2023-10-09T10:41:33;95415.53;;;22.69;54.15
75051;BME280;63628;47.656;11.310;2023-10-09T10:44:03;95404.84;;;20.92;54.87
75051;BME280;63628;47.656;11.310;2023-10-09T10:46:58;95405.34;;;18.80;63.45
75051;BME280;63628;47.656;11.310;2023-10-09T10:49:25;95399.13;;;23.17;52.87
75051;BME280;63628;47.656;11.310;2023-10-09T10:52:03;95399.81;;;21.14;56.81
75051;BME280;63628;47.656;11.310;2023-10-09T10:54:45;95396.03;;;26.12;44.35
75051;BME280;63628;47.656;11.310;2023-10-09T10:57:21;95405.66;;;22.83;54.52
75051;BME280;63628;47.656;11.310;2023-10-09T10:59:57;95392.16;;;25.65;43.22
75051;BME280;63628;47.656;11.310;2023-10-09T11:02:32;95387.69;;;22.92;51.96
75051;BME280;63628;47.656;11.310;2023-10-09T11:05:04;95389.06;;;25.26;44.39
75051;BME280;63628;47.656;11.310;2023-10-09T11:07:41;95391.53;;;24.33;47.98
75051;BME280;63628;47.656;11.310;2023-10-09T11:10:09;95382.56;;;25.58;45.26
75051;BME280;63628;47.656;11.310;2023-10-09T11:12:45;95381.03;;;25.13;44.33
75051;BME280;63628;47.656;11.310;2023-10-09T11:15:33;95379.72;;;24.88;48.63
75051;BME280;63628;47.656;11.310;2023-10-09T11:18:13;95380.88;;;24.95;44.56
75051;BME280;63628;47.656;11.310;2023-10-09T11:20:48;95373.63;;;25.58;46.09
75051;BME280;63628;47.656;11.310;2023-10-09T11:23:42;95381.88;;;25.84;44.16
75051;BME280;63628;47.656;11.310;2023-10-09T11:26:19;95381.44;;;24.84;45.01
75051;BME280;63628;47.656;11.310;2023-10-09T11:29:10;95372.41;;;26.21;41.33
75051;BME280;63628;47.656;11.310;2023-10-09T11:32:00;95374.09;;;26.00;43.04
75051;BME280;63628;47.656;11.310;2023-10-09T11:34:28;95379.78;;;26.29;42.22
75051;BME280;63628;47.656;11.310;2023-10-09T11:37:12;95381.81;;;25.67;44.53
75051;BME280;63628;47.656;11.310;2023-10-09T11:39:42;95368.25;;;26.15;41.71
75051;BME280;63628;47.656;11.310;2023-10-09T11:42:26;95365.94;;;26.74;41.58
75051;BME280;63628;47.656;11.310;2023-10-09T11:45:07;95372.19;;;25.29;41.62
75051;BME280;63628;47.656;11.310;2023-10-09T11:47:46;95375.63;;;23.17;43.71
75051;BME280;63628;47.656;11.310;2023-10-09T11:50:38;95376.00;;;24.61;39.83
75051;BME280;63628;47.656;11.310;2023-10-09T11:53:10;95373.44;;;24.79;40.42
75051;BME280;63628;47.656;11.310;2023-10-09T11:55:49;95375.06;;;24.44;41.59
75051;BME280;63628;47.656;11.310;2023-10-09T11:58:16;95374.94;;;23.71;47.60
75051;BME280;63628;47.656;11.310;2023-10-09T12:00:51;95380.88;;;21.77;51.92
75051;BME280;63628;47.656;11.310;2023-10-09T12:03:25;95365.50;;;24.10;46.88
75051;BME280;63628;47.656;11.310;2023-10-09T12:05:56;95368.00;;;23.52;47.60
75051;BME280;63628;47.656;11.310;2023-10-09T12:08:23;95359.31;;;23.82;39.49
75051;BME280;63628;47.656;11.310;2023-10-09T12:10:56;95369.09;;;22.16;45.80
75051;BME280;63628;47.656;11.310;2023-10-09T12:13:22;95357.97;;;24.57;41.20
75051;BME280;63628;47.656;11.310;2023-10-09T12:15:49;95359.38;;;23.91;42.04
75051;BME280;63628;47.656;11.310;2023-10-09T12:18:20;95358.84;;;24.66;40.93
75051;BME280;63628;47.656;11.310;2023-10-09T12:20:48;95363.69;;;23.92;44.37
75051;BME280;63628;47.656;11.310;2023-10-09T12:23:18;95371.44;;;24.48;41.10
75051;BME280;63628;47.656;11.310;2023-10-09T12:25:47;95357.16;;;24.34;40.21
75051;BME280;63628;47.656;11.310;2023-10-09T12:28:14;95360.41;;;24.45;42.42
75051;BME280;63628;47.656;11.310;2023-10-09T12:30:41;95352.84;;;24.33;37.94
75051;BME280;63628;47.656;11.310;2023-10-09T12:33:08;95357.84;;;23.30;41.00
75051;BME280;63628;47.656;11.310;2023-10-09T12:35:38;95366.38;;;24.19;44.35
75051;BME280;63628;47.656;11.310;2023-10-09T12:38:05;95364.00;;;23.90;42.40
75051;BME280;63628;47.656;11.310;2023-10-09T12:40:35;95365.41;;;23.88;43.12
75051;BME280;63628;47.656;11.310;2023-10-09T12:43:03;95365.25;;;22.73;48.18
75051;BME280;63628;47.656;11.310;2023-10-09T12:45:33;95365.75;;;23.26;42.48
75051;BME280;63628;47.656;11.310;2023-10-09T12:48:00;95364.78;;;23.50;46.33
75051;BME280;63628;47.656;11.310;2023-10-09T12:50:30;95367.13;;;23.56;41.72
75051;BME280;63628;47.656;11.310;2023-10-09T12:53:01;95360.03;;;22.82;43.91
75051;BME280;63628;47.656;11.310;2023-10-09T12:55:28;95359.63;;;22.37;48.62
75051;BME280;63628;47.656;11.310;2023-10-09T12:58:01;95364.28;;;22.31;47.34
75051;BME280;63628;47.656;11.310;2023-10-09T13:00:34;95373.00;;;21.80;50.60
75051;BME280;63628;47.656;11.310;2023-10-09T13:03:05;95371.69;;;22.77;44.04
75051;BME280;63628;47.656;11.310;2023-10-09T13:05:46;95381.69;;;22.58;43.20
75051;BME280;63628;47.656;11.310;2023-10-09T13:08:25;95373.72;;;22.66;44.36
75051;BME280;63628;47.656;11.310;2023-10-09T13:11:02;95373.53;;;22.63;40.81
75051;BME280;63628;47.656;11.310;2023-10-09T13:13:37;95370.31;;;22.61;43.50
75051;BME280;63628;47.656;11.310;2023-10-09T13:16:14;95375.63;;;22.66;44.64
75051;BME280;63628;47.656;11.310;2023-10-09T13:18:52;95375.66;;;21.62;47.71
75051;BME280;63628;47.656;11.310;2023-10-09T13:21:20;95359.63;;;22.37;45.87
75051;BME280;63628;47.656;11.310;2023-10-09T13:23:49;95371.00;;;22.15;46.84
75051;BME280;63628;47.656;11.310;2023-10-09T13:26:16;95379.81;;;22.21;47.39
75051;BME280;63628;47.656;11.310;2023-10-09T13:29:00;95382.56;;;21.92;49.93
75051;BME280;63628;47.656;11.310;2023-10-09T13:31:29;95385.88;;;21.65;51.88